Time;durP1;ratioP1;P1;durP2;ratioP2;P2;SDS_P1;SDS_P2;PMS_P1;PMS_P2;Temp;Humidity;BMP_temperature;BMP_pressure;BME280_temperature;BME280_humidity;BME280_pressure;Samples;Min_cycle;Max_cycle;Signal;HPM_P1;HPM_P2
2021/11/12 00:23:49;;;;;;;101.93;71.80;;;21.70;51.80;;;;;;4757651;55;21061;-26
2021/11/12 00:28:53;;;;;;;104.90;72.65;;;21.60;51.70;;;;;;4756943;55;21184;-36
2021/11/12 00:34:35;;;;;;;103.38;71.37;;;21.60;51.70;;;;;;4750702;55;21563;-25
2021/11/12 00:39:45;;;;;;;107.93;72.82;;;21.60;51.60;;;;;;4739123;55;21025;-21
2021/11/12 00:44:52;;;;;;;104.68;70.07;;;21.60;51.60;;;;;;4753276;55;21511;-29
2021/11/12 00:55:13;;;;;;;107.45;71.78;;;21.60;51.60;;;;;;4756046;55;21117;-18
2021/11/12 01:00:18;;;;;;;103.57;71.25;;;21.60;51.60;;;;;;4738073;59;21042;-17
2021/11/12 01:05:18;;;;;;;100.35;67.60;;;21.60;51.60;;;;;;4742970;55;21097;-30
2021/11/12 01:10:20;;;;;;;95.32;63.53;;;21.60;51.60;;;;;;4737985;55;21941;-33
2021/11/12 01:15:21;;;;;;;98.80;68.72;;;21.60;51.50;;;;;;4758298;55;21121;-30
2021/11/12 01:20:22;;;;;;;100.43;67.93;;;21.60;51.60;;;;;;4741964;55;22392;-26
2021/11/12 01:25:23;;;;;;;97.43;67.00;;;21.60;51.50;;;;;;4781049;55;21046;-31
2021/11/12 01:30:24;;;;;;;103.20;67.30;;;21.60;51.50;;;;;;4810007;55;22069;-30
2021/11/12 01:35:25;;;;;;;98.87;65.35;;;21.60;51.50;;;;;;4738220;55;22253;-32
2021/11/12 01:40:29;;;;;;;100.55;65.95;;;21.60;51.50;;;;;;4738292;59;22044;-32
2021/11/12 01:57:30;;;;;;;103.18;65.45;;;21.60;51.40;;;;;;4756237;55;21065;-30
2021/11/12 02:02:31;;;;;;;96.82;63.10;;;21.60;51.40;;;;;;4737956;55;21005;-34
2021/11/12 02:07:37;;;;;;;99.15;62.65;;;21.60;51.40;;;;;;4750891;55;21065;-35
2021/11/12 02:12:51;;;;;;;98.07;63.67;;;21.60;51.30;;;;;;4750105;55;21022;-31
2021/11/12 02:18:12;;;;;;;97.68;63.38;;;21.60;51.40;;;;;;4753695;55;21022;-37
2021/11/12 02:23:13;;;;;;;103.03;66.70;;;21.60;51.40;;;;;;4741253;55;21599;-34
2021/11/12 02:28:16;;;;;;;97.93;63.47;;;21.60;51.30;;;;;;4737613;59;21564;-27
2021/11/12 02:33:20;;;;;;;93.35;60.05;;;21.60;51.30;;;;;;4779744;55;21523;-24
2021/11/12 02:38:21;;;;;;;97.70;62.38;;;21.60;51.30;;;;;;4756423;55;21476;-30
2021/11/12 02:43:23;;;;;;;95.97;60.25;;;21.60;51.30;;;;;;4747396;55;20993;-37
2021/11/12 02:48:24;;;;;;;95.57;61.30;;;21.60;51.30;;;;;;4788027;55;21108;-34
2021/11/12 02:53:25;;;;;;;100.43;61.25;;;21.60;51.30;;;;;;4739163;55;20983;-35
2021/11/12 02:58:26;;;;;;;95.80;60.20;;;21.60;51.30;;;;;;4744945;55;21077;-31
2021/11/12 03:03:28;;;;;;;96.65;58.87;;;21.60;51.20;;;;;;4737933;59;21113;-32
2021/11/12 03:08:29;;;;;;;94.90;59.13;;;21.50;51.20;;;;;;4757978;55;21504;-33
2021/11/12 03:13:30;;;;;;;91.15;58.58;;;21.60;51.20;;;;;;4770072;55;21037;-34
2021/11/12 03:18:32;;;;;;;90.07;58.97;;;21.50;51.10;;;;;;4748132;55;21515;-34
2021/11/12 03:23:41;;;;;;;88.57;56.72;;;21.50;51.10;;;;;;4758329;55;20995;-36
2021/11/12 04:06:58;;;;;;;79.40;53.17;;;21.60;51.10;;;;;;4737920;55;21029;-28
2021/11/12 05:12:27;;;;;;;66.47;45.42;;;21.50;50.90;;;;;;4737333;55;21014;-31
2021/11/12 05:58:08;;;;;;;59.85;40.92;;;21.50;51.10;;;;;;4761194;55;21066;-22
2021/11/12 06:03:08;;;;;;;60.85;41.40;;;21.50;51.10;;;;;;4748778;55;21010;-27
2021/11/12 06:08:09;;;;;;;60.30;39.60;;;21.50;51.10;;;;;;4745004;55;21098;-31
2021/11/12 06:13:11;;;;;;;56.47;39.00;;;21.50;51.10;;;;;;4751959;55;21022;-25
2021/11/12 06:18:12;;;;;;;61.65;41.55;;;21.50;51.10;;;;;;4741286;55;22072;-21
2021/11/12 06:23:12;;;;;;;57.28;40.63;;;21.50;51.10;;;;;;4740323;55;21066;-35
2021/11/12 06:28:13;;;;;;;58.72;39.45;;;21.50;51.10;;;;;;4758853;55;21038;-27
2021/11/12 06:33:14;;;;;;;59.65;40.20;;;21.40;51.10;;;;;;4758140;55;21022;-35
2021/11/12 06:38:19;;;;;;;57.65;39.85;;;21.50;51.10;;;;;;4787974;55;21062;-33
2021/11/12 06:43:35;;;;;;;54.17;38.08;;;21.50;51.10;;;;;;4764433;55;21544;-31
2021/11/12 06:53:56;;;;;;;55.65;38.78;;;21.50;51.10;;;;;;4766353;55;21599;-29
2021/11/12 06:58:57;;;;;;;54.67;37.25;;;21.50;51.10;;;;;;4738201;59;21520;-33
2021/11/12 07:03:59;;;;;;;55.55;37.10;;;21.50;51.10;;;;;;4751726;55;21023;-30
2021/11/12 07:09:00;;;;;;;55.15;38.15;;;21.50;51.10;;;;;;4756137;55;21583;-20
2021/11/12 07:14:01;;;;;;;55.53;38.08;;;21.50;51.00;;;;;;4753458;55;21651;-34
2021/11/12 07:19:02;;;;;;;49.65;34.65;;;21.50;51.10;;;;;;4752122;55;21034;-31
2021/11/12 07:24:04;;;;;;;49.28;34.35;;;21.50;51.00;;;;;;4737963;59;21078;-30
2021/11/12 07:29:05;;;;;;;51.45;35.30;;;21.40;51.00;;;;;;4752516;55;21018;-29
2021/11/12 07:34:06;;;;;;;52.20;35.67;;;21.50;51.00;;;;;;4749299;55;20997;-29
2021/11/12 07:39:53;;;;;;;50.70;36.67;;;21.50;51.00;;;;;;4748106;55;21619;-35
2021/11/12 07:45:03;;;;;;;53.53;35.70;;;21.40;50.90;;;;;;4787617;55;22212;-31
2021/11/12 07:50:07;;;;;;;53.42;37.13;;;21.40;50.90;;;;;;4737808;59;21492;-34
2021/11/12 07:55:09;;;;;;;49.90;34.83;;;21.50;51.00;;;;;;4786897;55;21475;-23
2021/11/12 08:00:11;;;;;;;55.35;36.42;;;21.50;50.90;;;;;;4758717;55;21830;-27
2021/11/12 08:05:28;;;;;;;50.03;35.08;;;21.50;50.90;;;;;;4759190;55;20998;-28
2021/11/12 08:10:32;;;;;;;51.65;35.90;;;21.40;50.90;;;;;;4787341;55;21505;-24
2021/11/12 08:16:20;;;;;;;51.00;36.03;;;21.50;50.90;;;;;;4782080;55;21595;-30
2021/11/12 08:22:29;;;;;;;55.20;36.58;;;21.40;50.80;;;;;;4745077;55;22011;-30
2021/11/12 08:27:48;;;;;;;54.05;37.85;;;21.50;51.10;;;;;;4755111;55;21520;-33
2021/11/12 08:38:17;;;;;;;55.30;38.88;;;21.60;51.40;;;;;;4737286;55;21019;-26
2021/11/12 08:43:36;;;;;;;56.60;40.10;;;21.60;51.50;;;;;;4754004;55;21472;-27
2021/11/12 08:49:26;;;;;;;56.60;40.25;;;21.70;51.60;;;;;;4762344;55;21022;-29
2021/11/12 08:54:32;;;;;;;59.85;42.45;;;21.70;51.70;;;;;;4773180;55;21547;-25
2021/11/12 08:59:33;;;;;;;62.80;43.60;;;21.70;51.80;;;;;;4771904;55;21468;-31
2021/11/12 09:04:35;;;;;;;60.45;43.55;;;21.70;51.90;;;;;;4739357;55;21520;-30
2021/11/12 09:09:36;;;;;;;63.25;44.58;;;21.80;52.00;;;;;;4738053;55;21081;-30
2021/11/12 09:14:48;;;;;;;63.03;45.05;;;21.80;52.10;;;;;;4740653;55;21160;-23
2021/11/12 09:19:55;;;;;;;68.45;47.65;;;21.80;52.20;;;;;;4746397;55;22087;-31
2021/11/12 09:24:56;;;;;;;74.67;51.27;;;21.80;52.20;;;;;;4738315;55;21030;-30
2021/11/12 09:29:56;;;;;;;79.35;54.03;;;21.80;52.10;;;;;;4775954;55;21085;-35
2021/11/12 09:34:57;;;;;;;82.03;58.50;;;21.80;52.00;;;;;;4763471;55;21006;-34
2021/11/12 09:39:58;;;;;;;81.65;58.92;;;21.80;51.80;;;;;;4754788;55;21002;-31
2021/11/12 09:45:00;;;;;;;88.72;63.92;;;21.80;51.70;;;;;;4748311;55;21017;-29
2021/11/12 09:50:06;;;;;;;213.40;145.98;;;21.80;51.70;;;;;;4809139;55;21178;-24
2021/11/12 09:55:08;;;;;;;239.38;170.27;;;21.80;49.50;;;;;;4762905;55;21081;-27
2021/11/12 10:00:13;;;;;;;219.52;153.93;;;21.70;47.40;;;;;;4756595;55;21026;-20
2021/11/12 10:05:28;;;;;;;215.35;152.73;;;21.60;47.30;;;;;;4747503;55;21085;-29
2021/11/12 10:10:29;;;;;;;214.25;153.18;;;21.60;48.00;;;;;;4749591;55;21050;-23
2021/11/12 10:15:32;;;;;;;211.90;149.48;;;21.70;48.40;;;;;;4768789;55;21515;-31
2021/11/12 10:20:34;;;;;;;203.48;141.48;;;21.70;48.50;;;;;;4739232;55;21492;-32
2021/11/12 10:25:35;;;;;;;205.25;146.30;;;21.80;49.10;;;;;;4762237;55;21467;-29
2021/11/12 10:30:40;;;;;;;200.68;144.82;;;21.80;49.20;;;;;;4747079;55;21504;-25
2021/11/12 10:35:50;;;;;;;206.55;143.10;;;21.80;49.30;;;;;;4747235;55;21030;-30
2021/11/12 10:40:55;;;;;;;201.70;141.35;;;21.80;49.90;;;;;;4797514;55;21001;-31
2021/11/12 10:46:05;;;;;;;199.62;144.27;;;21.90;49.70;;;;;;4771610;55;20990;-27
2021/11/12 10:51:22;;;;;;;204.30;144.85;;;21.90;49.90;;;;;;4743868;55;21519;-31
2021/11/12 10:56:46;;;;;;;202.48;142.25;;;21.90;50.30;;;;;;4778176;55;21039;-32
2021/11/12 11:01:48;;;;;;;189.98;141.65;;;22.00;50.60;;;;;;4742166;55;20994;-31
2021/11/12 11:06:53;;;;;;;204.52;145.80;;;22.10;50.80;;;;;;4754540;55;21532;-24
2021/11/12 11:11:54;;;;;;;195.60;141.15;;;22.10;51.10;;;;;;4738209;55;21204;-23
2021/11/12 11:17:20;;;;;;;197.73;139.18;;;22.10;51.20;;;;;;4750531;55;21208;-29
2021/11/12 11:22:21;;;;;;;190.95;138.35;;;22.10;51.70;;;;;;4737677;55;21038;-32
2021/11/12 11:27:22;;;;;;;196.10;142.73;;;22.20;51.80;;;;;;4749249;55;21472;-35
2021/11/12 11:32:23;;;;;;;205.23;148.65;;;22.20;52.00;;;;;;4736119;55;21014;-28
2021/11/12 11:37:25;;;;;;;195.60;144.40;;;22.20;52.10;;;;;;4750049;55;21770;-30
2021/11/12 11:42:26;;;;;;;201.60;149.18;;;22.30;52.50;;;;;;4751485;55;20978;-30
2021/11/12 11:47:29;;;;;;;196.15;146.77;;;22.30;52.70;;;;;;4743281;55;21058;-28
2021/11/12 11:52:30;;;;;;;198.43;146.40;;;22.30;52.80;;;;;;4756924;55;21492;-29
2021/11/12 11:57:31;;;;;;;206.45;149.30;;;22.30;53.00;;;;;;4762470;55;21495;-29
2021/11/12 12:02:32;;;;;;;201.45;147.15;;;22.40;53.20;;;;;;4745141;55;21001;-28
2021/11/12 12:07:52;;;;;;;203.93;148.68;;;22.40;53.30;;;;;;4746038;55;21455;-27
2021/11/12 12:12:58;;;;;;;197.75;146.60;;;22.40;53.50;;;;;;4741938;55;21512;-29
2021/11/12 12:18:19;;;;;;;201.00;145.77;;;22.40;53.60;;;;;;4764026;55;21131;-30
2021/11/12 12:34:55;;;;;;;203.62;149.68;;;22.40;53.70;;;;;;4737908;55;21508;-32
2021/11/12 13:19:04;;;;;;;199.52;149.80;;;22.40;53.60;;;;;;4754577;55;21564;-24
2021/11/12 13:24:29;;;;;;;191.60;143.05;;;22.40;53.60;;;;;;4740915;55;21110;-30
2021/11/12 13:29:31;;;;;;;205.48;147.25;;;22.40;54.30;;;;;;4755106;55;21544;-29
2021/11/12 13:34:47;;;;;;;202.07;147.73;;;22.40;54.00;;;;;;4741340;55;21025;-29
2021/11/12 13:41:43;;;;;;;198.35;147.10;;;22.40;54.10;;;;;;4740963;55;21010;-27
2021/11/12 13:47:16;;;;;;;198.18;147.73;;;22.40;54.60;;;;;;4753697;55;20994;-30
2021/11/12 13:52:23;;;;;;;203.95;148.20;;;22.50;54.70;;;;;;4737833;55;21026;-25
2021/11/12 13:57:30;;;;;;;201.18;150.05;;;22.50;54.80;;;;;;4742228;55;21571;-32
2021/11/12 14:02:51;;;;;;;196.23;147.00;;;22.50;54.90;;;;;;4766512;55;21010;-26
2021/11/12 14:08:00;;;;;;;200.32;144.93;;;22.50;55.10;;;;;;4743252;55;21563;-30
2021/11/12 14:13:04;;;;;;;197.75;144.25;;;22.50;55.30;;;;;;4773543;55;21018;-32
2021/11/12 14:26:26;;;;;;;203.88;150.57;;;22.60;55.60;;;;;;4776306;55;21021;-30
2021/11/12 14:31:57;;;;;;;198.15;147.45;;;22.60;55.60;;;;;;4748913;55;21519;-30
2021/11/12 14:37:16;;;;;;;198.13;148.02;;;22.60;55.70;;;;;;4739612;55;21540;-30
2021/11/12 14:53:28;;;;;;;202.18;150.75;;;22.50;55.30;;;;;;4737830;59;21005;-35
2021/11/12 14:58:29;;;;;;;208.47;155.70;;;22.50;55.20;;;;;;4757825;55;21078;-33
2021/11/12 15:03:30;;;;;;;224.12;169.27;;;22.50;55.10;;;;;;4738277;55;21014;-30
2021/11/12 15:08:32;;;;;;;216.30;159.68;;;22.50;54.30;;;;;;4737909;56;21061;-41
2021/11/12 15:13:36;;;;;;;221.85;161.98;;;22.40;54.40;;;;;;4777833;55;21496;-30
2021/11/12 15:18:37;;;;;;;213.30;157.48;;;22.40;54.50;;;;;;4738274;57;21575;-33
2021/11/12 15:23:55;;;;;;;220.00;160.43;;;22.30;54.40;;;;;;4762174;55;21013;-30
2021/11/12 15:36:42;;;;;;;223.07;161.45;;;22.20;54.40;;;;;;4760777;55;21026;-29
2021/11/12 15:49:24;;;;;;;223.87;164.88;;;22.20;54.40;;;;;;4747866;55;21089;-23
2021/11/12 15:54:45;;;;;;;224.70;162.45;;;22.10;54.40;;;;;;4745078;55;21504;-33
2021/11/12 16:01:26;;;;;;;216.80;160.95;;;22.00;54.30;;;;;;4738775;55;21049;-30
2021/11/12 16:07:43;;;;;;;224.27;161.70;;;22.10;54.30;;;;;;4738121;59;21685;-33
2021/11/12 16:12:50;;;;;;;223.48;166.20;;;22.10;54.20;;;;;;4737343;55;21577;-25
2021/11/12 16:24:45;;;;;;;225.55;169.43;;;22.00;54.10;;;;;;4743534;55;21030;-31
2021/11/12 16:29:51;;;;;;;228.18;171.80;;;22.00;54.10;;;;;;4738139;59;21552;-35
2021/11/12 16:35:00;;;;;;;228.70;165.45;;;22.00;54.10;;;;;;4739873;55;21496;-35
2021/11/12 16:40:07;;;;;;;219.95;165.05;;;21.90;54.00;;;;;;4743832;55;21101;-28
2021/11/12 17:00:12;;;;;;;227.98;171.13;;;21.90;53.90;;;;;;4737869;59;21113;-32
2021/11/12 17:05:20;;;;;;;223.77;169.68;;;21.90;53.90;;;;;;4738279;55;21471;-31
2021/11/12 17:10:28;;;;;;;223.07;168.57;;;21.90;53.80;;;;;;4771693;55;21508;-34
2021/11/12 17:16:25;;;;;;;226.68;167.30;;;21.90;54.40;;;;;;4737879;59;21519;-28
2021/11/12 17:23:29;;;;;;;233.65;174.00;;;21.90;53.70;;;;;;4750155;55;21018;-30
2021/11/12 17:50:12;;;;;;;230.07;172.85;;;21.80;53.50;;;;;;4737604;59;21041;-24
2021/11/12 18:06:13;;;;;;;233.90;174.15;;;21.80;53.40;;;;;;4737311;55;21120;-21
2021/11/12 21:47:40;;;;;;;167.18;127.05;;;21.60;51.60;;;;;;4738047;55;21057;-32
2021/11/12 21:52:41;;;;;;;161.18;125.75;;;21.60;51.60;;;;;;4760630;55;22076;-26
2021/11/12 21:57:41;;;;;;;159.70;122.45;;;21.60;51.50;;;;;;4743451;55;20990;-27
2021/11/12 22:02:43;;;;;;;163.75;125.87;;;21.60;51.50;;;;;;4747071;55;21001;-22
2021/11/12 22:07:44;;;;;;;159.63;124.45;;;21.60;51.40;;;;;;4760846;55;21039;-27
2021/11/12 22:12:45;;;;;;;153.85;118.25;;;21.60;51.40;;;;;;4761601;55;21564;-25
2021/11/12 22:17:46;;;;;;;163.60;123.80;;;21.60;51.40;;;;;;4738740;55;21465;-21
2021/11/12 22:22:49;;;;;;;155.30;119.50;;;21.60;51.30;;;;;;4750900;55;21066;-30
2021/11/12 22:27:50;;;;;;;156.48;120.45;;;21.60;51.30;;;;;;4772090;55;21002;-32
2021/11/12 22:32:51;;;;;;;147.98;116.03;;;21.60;51.30;;;;;;4747715;55;21518;-32
2021/11/12 22:37:52;;;;;;;152.60;116.90;;;21.60;51.30;;;;;;4748635;55;21520;-32
2021/11/12 22:42:53;;;;;;;150.45;116.32;;;21.60;51.20;;;;;;4759770;55;21002;-29
2021/11/12 22:47:54;;;;;;;141.93;113.47;;;21.60;51.20;;;;;;4737856;59;21516;-30
2021/11/12 22:52:55;;;;;;;149.38;114.72;;;21.60;51.10;;;;;;4767674;55;21025;-27
2021/11/12 22:57:56;;;;;;;149.27;113.85;;;21.60;51.10;;;;;;4767697;55;21521;-25
2021/11/12 23:02:59;;;;;;;143.32;111.45;;;21.60;51.10;;;;;;4756192;55;21054;-24
2021/11/12 23:07:59;;;;;;;140.23;108.35;;;21.60;51.10;;;;;;4746902;55;21017;-29
2021/11/12 23:13:00;;;;;;;138.07;106.82;;;21.60;51.10;;;;;;4737215;59;21504;-30
2021/11/12 23:18:02;;;;;;;137.20;107.43;;;21.60;51.00;;;;;;4745940;55;21021;-29
2021/11/12 23:23:06;;;;;;;137.30;105.85;;;21.60;51.00;;;;;;4796390;55;20993;-33
2021/11/12 23:28:08;;;;;;;137.00;106.37;;;21.60;50.90;;;;;;4737748;59;21599;-29
2021/11/12 23:33:09;;;;;;;134.02;105.68;;;21.60;50.90;;;;;;4748856;55;21033;-29
2021/11/12 23:38:10;;;;;;;130.02;103.53;;;21.60;50.90;;;;;;4737900;59;21057;-29
2021/11/12 23:43:11;;;;;;;128.02;97.68;;;21.60;50.90;;;;;;4761815;55;21061;-31
2021/11/12 23:48:12;;;;;;;130.85;101.93;;;21.60;51.40;;;;;;4737841;59;21018;-21
2021/11/12 23:53:13;;;;;;;123.43;98.18;;;21.60;50.80;;;;;;4751931;55;21025;-30
2021/11/12 23:58:14;;;;;;;127.10;98.75;;;21.60;50.80;;;;;;4750751;55;21089;-29
